Terminal Aerodrome Forecast
Issued by NWS Quad Cities IA IL

Home | Current Version | Previous Version | Text Only | Print | Product List | Glossary On
Versions: 1 2 3 4 5 6 7 8 9 10 11 12 13 14 15 16 17 18 19 20 21 22 23 24 25 26 27 28 29 30 31 32 33 34 35 36
677
FTUS43 KDVN 191727
TAFDBQ
TAF
KDBQ 191727Z 1918/2018 33007KT P6SM FEW250
     FM200000 01003KT P6SM SKC
     FM200800 01003KT 2SM BR SCT002
     FM201000 02003KT 3/4SM MIFG SCT002
     FM201400 08005KT 6SM BR FEW002 FEW250=

USA.gov is the U.S. government's official web portal to all federal, state and local government web resources and services.